createdAt,value
2023-05-13T00:00:46.816Z,101226.22
2023-05-13T00:03:14.380Z,101221.66
2023-05-13T00:05:41.656Z,101213.69
2023-05-13T00:08:09.426Z,101219.81
2023-05-13T00:10:36.791Z,101219.09
2023-05-13T00:13:04.326Z,101207.09
2023-05-13T00:15:31.574Z,101209.78
2023-05-13T00:17:59.082Z,101212.03
2023-05-13T00:20:26.310Z,101208.34
2023-05-13T00:22:53.922Z,101220.72
2023-05-13T00:25:21.254Z,101206.06
2023-05-13T00:27:48.996Z,101221.81
2023-05-13T00:30:16.606Z,101219.53
2023-05-13T00:32:44.092Z,101208.44
2023-05-13T00:35:11.388Z,101210.88
2023-05-13T00:37:39.040Z,101211.00
2023-05-13T00:40:12.850Z,101208.97
2023-05-13T00:42:40.443Z,101203.59
2023-05-13T00:45:08.047Z,101207.25
2023-05-13T00:47:35.762Z,101214.38
2023-05-13T00:50:03.642Z,101207.81
2023-05-13T00:52:31.926Z,101202.41
2023-05-13T00:54:59.138Z,101219.19
2023-05-13T00:57:26.666Z,101214.63
2023-05-13T00:59:54.047Z,101206.28
2023-05-13T01:02:32.979Z,101211.53
2023-05-13T01:05:17.196Z,101218.75
2023-05-13T01:07:50.514Z,101222.16
2023-05-13T01:10:42.823Z,101227.53
2023-05-13T01:13:13.591Z,101230.88
2023-05-13T01:15:47.986Z,101225.16
2023-05-13T01:18:20.667Z,101228.91
2023-05-13T01:20:48.068Z,101222.50
2023-05-13T01:23:15.926Z,101219.56
2023-05-13T01:25:43.305Z,101231.00
2023-05-13T01:28:11.490Z,101229.88
2023-05-13T01:30:41.580Z,101225.97
2023-05-13T01:33:11.294Z,101228.78
2023-05-13T01:35:39.055Z,101228.44
2023-05-13T01:38:08.765Z,101228.19
2023-05-13T01:40:37.413Z,101224.81
2023-05-13T01:43:07.437Z,101225.47
2023-05-13T01:45:37.096Z,101234.63
2023-05-13T01:48:05.237Z,101235.97
2023-05-13T01:50:47.598Z,101233.66
2023-05-13T01:53:15.101Z,101233.78
2023-05-13T01:55:42.331Z,101231.56
2023-05-13T01:58:10.619Z,101219.91
2023-05-13T02:00:37.984Z,101230.09
2023-05-13T02:03:05.836Z,101243.16
2023-05-13T02:05:33.388Z,101222.97
2023-05-13T02:08:06.587Z,101235.66
2023-05-13T02:10:33.871Z,101229.53
2023-05-13T02:13:01.856Z,101242.44
2023-05-13T02:15:29.111Z,101245.94
2023-05-13T02:17:57.105Z,101228.97
2023-05-13T02:20:24.471Z,101238.38
2023-05-13T02:22:52.285Z,101243.63
2023-05-13T02:25:19.714Z,101242.22
2023-05-13T02:27:47.421Z,101247.53
2023-05-13T02:30:14.742Z,101245.00
2023-05-13T02:32:44.051Z,101235.72
2023-05-13T02:35:11.419Z,101245.56
2023-05-13T02:37:39.017Z,101248.25
2023-05-13T02:40:06.940Z,101247.22
2023-05-13T02:42:34.554Z,101247.59
2023-05-13T02:45:01.949Z,101242.41
2023-05-13T02:47:35.591Z,101240.63
2023-05-13T02:50:09.972Z,101238.34
2023-05-13T02:52:39.392Z,101235.72
2023-05-13T02:55:08.327Z,101245.28
2023-05-13T02:57:37.914Z,101235.94
2023-05-13T03:00:06.150Z,101239.69
2023-05-13T03:02:35.155Z,101249.47
2023-05-13T03:05:02.484Z,101240.41
2023-05-13T03:07:30.082Z,101250.41
2023-05-13T03:09:58.938Z,101244.16
2023-05-13T03:12:26.550Z,101247.00
2023-05-13T03:14:53.768Z,101235.63
2023-05-13T03:17:21.374Z,101233.88
2023-05-13T03:19:49.478Z,101250.78
2023-05-13T03:22:17.146Z,101246.50
2023-05-13T03:24:44.803Z,101242.38
2023-05-13T03:27:13.400Z,101244.44
2023-05-13T03:29:41.034Z,101234.63
2023-05-13T03:32:09.101Z,101259.31
2023-05-13T03:34:37.884Z,101252.19
2023-05-13T03:37:05.666Z,101255.91
2023-05-13T03:39:32.852Z,101258.63
2023-05-13T03:42:00.437Z,101259.50
2023-05-13T03:44:27.939Z,101259.53
2023-05-13T03:46:55.608Z,101254.78
2023-05-13T03:49:22.928Z,101247.47
2023-05-13T03:51:50.395Z,101257.44
2023-05-13T03:54:17.769Z,101264.28
2023-05-13T03:56:46.085Z,101259.41
2023-05-13T03:59:13.264Z,101263.47
2023-05-13T04:01:41.055Z,101261.19
2023-05-13T04:04:09.394Z,101257.97
2023-05-13T04:06:36.974Z,101275.31
2023-05-13T04:09:04.810Z,101263.00
2023-05-13T04:11:32.803Z,101274.53
2023-05-13T04:14:00.186Z,101273.91
2023-05-13T04:16:28.011Z,101276.94
2023-05-13T04:18:55.391Z,101274.94
2023-05-13T04:21:23.024Z,101282.09
2023-05-13T04:23:50.308Z,101270.59
2023-05-13T04:26:17.863Z,101279.53
2023-05-13T04:28:45.517Z,101286.03
2023-05-13T04:31:13.569Z,101269.75
2023-05-13T04:33:41.105Z,101278.91
2023-05-13T04:36:09.018Z,101287.00
2023-05-13T04:38:36.442Z,101286.38
2023-05-13T04:41:04.646Z,101279.69
2023-05-13T04:43:39.661Z,101278.88
2023-05-13T04:46:07.217Z,101282.75
2023-05-13T04:48:34.482Z,101276.53
2023-05-13T04:51:02.417Z,101287.09
2023-05-13T04:53:30.765Z,101291.16
2023-05-13T04:56:01.737Z,101290.16
2023-05-13T04:58:30.636Z,101299.00
2023-05-13T05:00:58.340Z,101291.41
2023-05-13T05:03:25.928Z,101304.19
2023-05-13T05:05:54.046Z,101298.22
2023-05-13T05:08:22.285Z,101301.19
2023-05-13T05:10:51.478Z,101303.47
2023-05-13T05:13:19.662Z,101304.97
2023-05-13T05:15:47.172Z,101317.38
2023-05-13T05:18:15.406Z,101308.28
2023-05-13T05:20:46.172Z,101309.44
2023-05-13T05:23:16.341Z,101310.88
2023-05-13T05:25:44.316Z,101305.69
2023-05-13T05:28:12.443Z,101313.97
2023-05-13T05:30:43.035Z,101321.94
2023-05-13T05:33:20.407Z,101327.22
2023-05-13T05:35:48.554Z,101319.69
2023-05-13T05:38:18.003Z,101315.63
2023-05-13T05:40:47.166Z,101319.28
2023-05-13T05:43:16.460Z,101315.78
2023-05-13T05:45:44.280Z,101324.38
2023-05-13T05:48:15.849Z,101322.19
2023-05-13T05:50:43.983Z,101327.72
2023-05-13T05:53:15.595Z,101323.31
2023-05-13T05:55:43.211Z,101327.25
2023-05-13T05:58:14.504Z,101325.81
2023-05-13T06:00:42.086Z,101337.03
2023-05-13T06:03:09.819Z,101330.38
2023-05-13T06:05:39.577Z,101323.50
2023-05-13T06:08:06.991Z,101335.50
2023-05-13T06:10:35.339Z,101331.09
2023-05-13T06:13:02.559Z,101326.38
2023-05-13T06:15:30.752Z,101329.69
2023-05-13T06:17:58.151Z,101321.75
2023-05-13T06:20:26.112Z,101323.38
2023-05-13T06:22:53.370Z,101323.91
2023-05-13T06:25:20.998Z,101322.75
2023-05-13T06:27:48.227Z,101319.59
2023-05-13T06:30:16.183Z,101331.56
2023-05-13T06:32:53.575Z,101328.69
2023-05-13T06:35:28.759Z,101325.34
2023-05-13T06:37:56.170Z,101328.97
2023-05-13T06:40:23.931Z,101327.81
2023-05-13T06:42:51.893Z,101330.00
2023-05-13T06:45:29.052Z,101337.84
2023-05-13T06:47:56.759Z,101330.63
2023-05-13T06:50:24.468Z,101337.09
2023-05-13T06:52:52.544Z,101327.38
2023-05-13T06:55:20.188Z,101331.47
2023-05-13T06:57:47.553Z,101327.44
2023-05-13T07:00:16.029Z,101329.06
2023-05-13T07:02:43.862Z,101319.31
2023-05-13T07:05:12.202Z,101336.91
2023-05-13T07:07:39.503Z,101327.38
2023-05-13T07:10:07.243Z,101330.97
2023-05-13T07:12:34.490Z,101326.50
2023-05-13T07:15:02.122Z,101321.94
2023-05-13T07:17:31.371Z,101331.94
2023-05-13T07:19:59.398Z,101326.66
2023-05-13T07:22:27.955Z,101324.88
2023-05-13T07:24:56.462Z,101318.69
2023-05-13T07:27:23.790Z,101324.81
2023-05-13T07:29:51.294Z,101327.72
2023-05-13T07:32:18.740Z,101318.53
2023-05-13T07:34:46.431Z,101319.25
2023-05-13T07:37:13.748Z,101318.28
2023-05-13T07:39:41.337Z,101317.63
2023-05-13T07:42:08.565Z,101312.22
2023-05-13T07:44:36.091Z,101316.53
2023-05-13T07:47:03.368Z,101320.31
2023-05-13T07:49:31.045Z,101314.84
2023-05-13T07:51:58.278Z,101317.66
2023-05-13T07:54:25.781Z,101316.81
2023-05-13T07:56:53.049Z,101308.47
2023-05-13T07:59:20.650Z,101315.66
2023-05-13T08:01:47.948Z,101308.97
2023-05-13T08:04:15.800Z,101308.72
2023-05-13T08:06:43.223Z,101309.81
2023-05-13T08:09:12.344Z,101309.81
2023-05-13T08:11:39.646Z,101314.44
2023-05-13T08:14:07.293Z,101305.97
2023-05-13T08:16:36.511Z,101311.16
2023-05-13T08:19:04.919Z,101308.41
2023-05-13T08:21:32.801Z,101315.19
2023-05-13T08:24:00.384Z,101312.69
2023-05-13T08:26:27.853Z,101315.44
2023-05-13T08:28:57.231Z,101312.72
2023-05-13T08:31:27.699Z,101313.03
2023-05-13T08:33:55.324Z,101313.03
2023-05-13T08:36:23.044Z,101301.00
2023-05-13T08:38:50.522Z,101304.97
2023-05-13T08:41:20.476Z,101307.28
2023-05-13T08:43:50.538Z,101305.69
2023-05-13T08:46:19.508Z,101305.22
2023-05-13T08:48:48.047Z,101289.22
2023-05-13T08:51:15.301Z,101305.97
2023-05-13T08:53:44.463Z,101304.75
2023-05-13T08:56:12.520Z,101303.97
2023-05-13T08:58:40.052Z,101301.19
2023-05-13T09:01:07.876Z,101305.75
2023-05-13T09:03:41.386Z,101296.00
2023-05-13T09:06:08.678Z,101297.47
2023-05-13T09:08:36.580Z,101291.59
2023-05-13T09:11:04.092Z,101291.59
2023-05-13T09:13:31.634Z,101286.63
2023-05-13T09:15:58.866Z,101287.00
2023-05-13T09:18:32.005Z,101281.59
2023-05-13T09:21:23.719Z,101304.41
2023-05-13T09:23:56.469Z,101289.75
2023-05-13T09:26:30.388Z,101293.31
2023-05-13T09:29:18.060Z,101283.81
2023-05-13T09:31:47.087Z,101289.16
2023-05-13T09:34:21.710Z,101288.09
2023-05-13T09:36:58.532Z,101287.06
2023-05-13T09:39:26.887Z,101288.44
2023-05-13T09:41:54.331Z,101280.78
2023-05-13T09:44:22.144Z,101288.81
2023-05-13T09:46:51.978Z,101279.47
2023-05-13T09:49:23.351Z,101286.44
2023-05-13T09:51:50.871Z,101272.16
2023-05-13T09:54:19.069Z,101282.59
2023-05-13T09:56:46.332Z,101278.00
2023-05-13T09:59:16.227Z,101266.81
2023-05-13T10:01:44.700Z,101262.56
2023-05-13T10:04:12.941Z,101265.41
2023-05-13T10:06:40.714Z,101267.28
2023-05-13T10:09:10.489Z,101263.66
2023-05-13T10:11:38.339Z,101258.34
2023-05-13T10:14:07.159Z,101257.84
2023-05-13T10:16:34.745Z,101259.91
2023-05-13T10:19:04.343Z,101260.25
2023-05-13T10:21:32.837Z,101253.53
2023-05-13T10:24:02.061Z,101259.72
2023-05-13T10:26:30.156Z,101257.16
2023-05-13T10:28:58.226Z,101264.31
2023-05-13T10:31:26.929Z,101263.41
2023-05-13T10:33:54.757Z,101256.06
2023-05-13T10:36:43.045Z,101252.34
2023-05-13T10:39:26.194Z,101245.06
2023-05-13T10:42:12.236Z,101245.63
2023-05-13T10:44:40.063Z,101243.47
2023-05-13T10:47:09.830Z,101242.91
2023-05-13T10:49:37.638Z,101225.56
2023-05-13T10:52:11.565Z,101234.84
2023-05-13T10:54:42.286Z,101232.97
2023-05-13T10:57:09.809Z,101241.63
2023-05-13T10:59:38.943Z,101235.25
2023-05-13T11:02:25.208Z,101233.75
2023-05-13T11:05:00.494Z,101242.03
2023-05-13T11:07:31.153Z,101224.50
2023-05-13T11:10:00.001Z,101229.13
2023-05-13T11:12:27.194Z,101236.56
2023-05-13T11:14:57.748Z,101229.31
2023-05-13T11:17:25.059Z,101223.81
2023-05-13T11:19:53.369Z,101222.91
2023-05-13T11:22:24.229Z,101225.66
2023-05-13T11:25:04.293Z,101221.69
2023-05-13T11:27:37.770Z,101228.34
2023-05-13T11:30:26.456Z,101224.03
2023-05-13T11:32:58.515Z,101223.91
2023-05-13T11:35:27.567Z,101223.25
2023-05-13T11:38:00.408Z,101210.97
2023-05-13T11:40:33.664Z,101207.16
2023-05-13T11:43:02.020Z,101216.56
2023-05-13T11:45:31.681Z,101201.78
2023-05-13T11:47:59.221Z,101215.13
2023-05-13T11:50:32.528Z,101209.81
2023-05-13T11:53:01.738Z,101219.34
2023-05-13T11:55:30.353Z,101218.22
2023-05-13T11:57:58.898Z,101216.25
2023-05-13T12:00:34.441Z,101207.28
2023-05-13T12:03:09.368Z,101210.00
2023-05-13T12:05:37.190Z,101201.66
2023-05-13T12:08:04.807Z,101198.19
2023-05-13T12:10:32.302Z,101208.00
2023-05-13T12:12:59.721Z,101207.63
2023-05-13T12:15:27.940Z,101210.69
2023-05-13T12:17:55.490Z,101211.81
2023-05-13T12:20:24.442Z,101201.78
2023-05-13T12:22:53.931Z,101198.25
2023-05-13T12:25:45.295Z,101212.69
2023-05-13T12:28:17.288Z,101205.06
2023-05-13T12:30:52.277Z,101210.22
2023-05-13T12:33:21.666Z,101197.78
2023-05-13T12:35:51.858Z,101194.91
2023-05-13T12:38:24.599Z,101200.34
2023-05-13T12:40:53.311Z,101195.00
2023-05-13T12:43:21.824Z,101197.31
2023-05-13T12:45:54.892Z,101208.81
2023-05-13T12:48:26.068Z,101211.91
2023-05-13T12:50:53.618Z,101202.94
2023-05-13T12:53:21.384Z,101209.41
2023-05-13T12:55:48.913Z,101202.88
2023-05-13T12:58:16.275Z,101193.16
2023-05-13T13:00:43.809Z,101194.25
2023-05-13T13:03:11.213Z,101195.56
2023-05-13T13:05:38.923Z,101194.72
2023-05-13T13:08:06.276Z,101203.38
2023-05-13T13:10:33.978Z,101200.09
2023-05-13T13:13:01.549Z,101198.13
2023-05-13T13:15:29.097Z,101207.41
2023-05-13T13:17:56.347Z,101199.69
2023-05-13T13:20:23.879Z,101203.09
2023-05-13T13:22:51.059Z,101200.97
2023-05-13T13:25:18.661Z,101208.78
2023-05-13T13:27:45.806Z,101202.06
2023-05-13T13:30:14.594Z,101186.97
2023-05-13T13:32:41.845Z,101193.91
2023-05-13T13:35:10.078Z,101176.91
2023-05-13T13:37:38.022Z,101172.84
2023-05-13T13:40:06.437Z,101180.19
2023-05-13T13:42:44.069Z,101185.03
2023-05-13T13:45:13.956Z,101179.38
2023-05-13T13:47:41.872Z,101170.66
2023-05-13T13:50:09.989Z,101175.88
2023-05-13T13:52:37.257Z,101176.44
2023-05-13T13:55:05.170Z,101171.91
2023-05-13T13:57:32.371Z,101168.53
2023-05-13T14:00:00.050Z,101174.59
2023-05-13T14:02:27.395Z,101165.91
2023-05-13T14:04:55.152Z,101171.31
2023-05-13T14:07:22.550Z,101162.34
2023-05-13T14:09:50.248Z,101155.97
2023-05-13T14:12:17.571Z,101163.84
2023-05-13T14:14:45.153Z,101165.16
2023-05-13T14:17:14.330Z,101144.78
2023-05-13T14:19:42.524Z,101151.94
2023-05-13T14:22:09.669Z,101155.25
2023-05-13T14:24:37.204Z,101158.06
2023-05-13T14:27:05.161Z,101158.09
2023-05-13T14:29:33.178Z,101143.00
2023-05-13T14:32:02.130Z,101156.72
2023-05-13T14:34:29.763Z,101153.47
2023-05-13T14:36:56.940Z,101154.66
2023-05-13T14:39:24.715Z,101138.78
2023-05-13T14:41:51.897Z,101146.84
2023-05-13T14:44:19.718Z,101140.81
2023-05-13T14:46:46.963Z,101144.50
2023-05-13T14:49:14.562Z,101131.22
2023-05-13T14:51:41.926Z,101137.72
2023-05-13T14:54:09.577Z,101133.34
2023-05-13T14:56:37.936Z,101139.34
2023-05-13T14:59:05.418Z,101131.72
2023-05-13T15:01:32.815Z,101133.91
2023-05-13T15:04:00.515Z,101137.97
2023-05-13T15:06:29.208Z,101133.19
2023-05-13T15:08:57.500Z,101127.25
2023-05-13T15:11:27.752Z,101132.28
2023-05-13T15:13:55.450Z,101122.03
2023-05-13T15:16:22.850Z,101123.56
2023-05-13T15:18:50.842Z,101126.91
2023-05-13T15:21:18.177Z,101127.19
2023-05-13T15:23:45.802Z,101125.41
2023-05-13T15:26:12.980Z,101137.28
2023-05-13T15:28:40.474Z,101121.66
2023-05-13T15:31:07.891Z,101126.81
2023-05-13T15:33:35.523Z,101129.75
2023-05-13T15:36:02.813Z,101123.09
2023-05-13T15:38:30.686Z,101113.28
2023-05-13T15:40:57.862Z,101125.38
2023-05-13T15:43:25.405Z,101127.94
2023-05-13T15:45:53.665Z,101115.94
2023-05-13T15:48:21.261Z,101121.00
2023-05-13T15:50:48.537Z,101112.47
2023-05-13T15:53:16.137Z,101118.47
2023-05-13T15:55:43.459Z,101112.47
2023-05-13T15:58:10.929Z,101105.19
2023-05-13T16:00:38.188Z,101096.09
2023-05-13T16:03:05.916Z,101101.41
2023-05-13T16:05:33.341Z,101097.91
2023-05-13T16:08:01.125Z,101098.88
2023-05-13T16:10:28.333Z,101096.44
2023-05-13T16:12:55.906Z,101096.72
2023-05-13T16:15:23.198Z,101092.09
2023-05-13T16:17:50.698Z,101094.63
2023-05-13T16:20:18.043Z,101097.38
2023-05-13T16:22:45.618Z,101088.41
2023-05-13T16:25:12.862Z,101090.78
2023-05-13T16:27:43.120Z,101097.22
2023-05-13T16:30:10.646Z,101101.63
2023-05-13T16:32:38.314Z,101093.53
2023-05-13T16:35:06.202Z,101096.59
2023-05-13T16:37:36.711Z,101091.81
2023-05-13T16:40:05.003Z,101086.38
2023-05-13T16:42:32.462Z,101079.94
2023-05-13T16:44:59.627Z,101088.38
2023-05-13T16:47:27.275Z,101085.97
2023-05-13T16:49:56.185Z,101092.28
2023-05-13T16:52:24.426Z,101082.06
2023-05-13T16:54:52.381Z,101085.19
2023-05-13T16:57:22.322Z,101087.97
2023-05-13T16:59:49.567Z,101086.50
2023-05-13T17:02:17.120Z,101078.28
2023-05-13T17:04:44.364Z,101093.00
2023-05-13T17:07:11.843Z,101094.97
2023-05-13T17:09:38.999Z,101092.66
2023-05-13T17:12:06.824Z,101094.34
2023-05-13T17:14:34.054Z,101093.88
2023-05-13T17:17:03.211Z,101100.47
2023-05-13T17:19:30.661Z,101094.88
2023-05-13T17:21:58.151Z,101083.75
2023-05-13T17:24:29.280Z,101081.22
2023-05-13T17:26:56.898Z,101082.78
2023-05-13T17:29:25.655Z,101092.31
2023-05-13T17:31:53.313Z,101094.69
2023-05-13T17:34:20.778Z,101097.75
2023-05-13T17:36:50.084Z,101084.28
2023-05-13T17:39:17.535Z,101101.88
2023-05-13T17:41:45.018Z,101103.97
2023-05-13T17:44:12.346Z,101099.25
2023-05-13T17:46:40.057Z,101099.28
2023-05-13T17:49:07.333Z,101104.97
2023-05-13T17:51:34.951Z,101107.09
2023-05-13T17:54:02.148Z,101110.94
2023-05-13T17:56:29.878Z,101143.50
2023-05-13T17:58:57.017Z,101168.59
2023-05-13T18:01:24.549Z,101136.09
2023-05-13T18:03:51.733Z,101131.31
2023-05-13T18:06:19.243Z,101132.41
2023-05-13T18:08:46.475Z,101133.41
2023-05-13T18:11:13.980Z,101137.09
2023-05-13T18:13:41.114Z,101133.75
2023-05-13T18:16:10.321Z,101143.16
2023-05-13T18:18:37.610Z,101140.94
2023-05-13T18:21:05.193Z,101137.50
2023-05-13T18:23:32.824Z,101132.59
2023-05-13T18:26:00.486Z,101138.22
2023-05-13T18:28:27.941Z,101139.19
2023-05-13T18:30:55.684Z,101143.25
2023-05-13T18:33:22.956Z,101148.31
2023-05-13T18:35:50.468Z,101146.63
2023-05-13T18:38:17.657Z,101137.47
2023-05-13T18:40:45.326Z,101147.69
2023-05-13T18:43:12.878Z,101153.13
2023-05-13T18:45:40.406Z,101147.72
2023-05-13T18:48:07.742Z,101134.94
2023-05-13T18:50:35.447Z,101140.66
2023-05-13T18:53:02.670Z,101148.78
2023-05-13T18:55:30.135Z,101142.53
2023-05-13T18:57:57.352Z,101146.19
2023-05-13T19:00:25.190Z,101153.47
2023-05-13T19:02:52.546Z,101136.25
2023-05-13T19:05:20.586Z,101125.41
2023-05-13T19:07:47.912Z,101125.81
2023-05-13T19:10:15.863Z,101113.94
2023-05-13T19:12:43.048Z,101117.69
2023-05-13T19:15:11.451Z,101102.63
2023-05-13T19:17:40.623Z,101111.00
2023-05-13T19:20:08.853Z,101116.44
2023-05-13T19:22:36.190Z,101120.88
2023-05-13T19:25:03.861Z,101119.16
2023-05-13T19:27:31.912Z,101123.88
2023-05-13T19:29:59.579Z,101118.16
2023-05-13T19:32:26.919Z,101125.69
2023-05-13T19:34:54.444Z,101116.22
2023-05-13T19:37:21.913Z,101126.22
2023-05-13T19:39:49.406Z,101136.09
2023-05-13T19:42:16.624Z,101145.28
2023-05-13T19:44:44.218Z,101137.81
2023-05-13T19:47:11.529Z,101144.94
2023-05-13T19:49:39.182Z,101149.22
2023-05-13T19:52:07.153Z,101128.31
2023-05-13T19:54:34.783Z,101133.06
2023-05-13T19:57:02.039Z,101135.75
2023-05-13T19:59:29.629Z,101140.34
2023-05-13T20:01:56.867Z,101125.41
2023-05-13T20:04:24.353Z,101122.19
2023-05-13T20:06:51.508Z,101126.09
2023-05-13T20:09:19.030Z,101122.50
2023-05-13T20:11:46.200Z,101122.00
2023-05-13T20:14:13.795Z,101121.31
2023-05-13T20:16:41.694Z,101136.25
2023-05-13T20:19:09.940Z,101127.97
2023-05-13T20:21:37.255Z,101129.16
2023-05-13T20:24:04.807Z,101124.41
2023-05-13T20:26:34.732Z,101122.69
2023-05-13T20:29:02.670Z,101118.97
2023-05-13T20:31:30.156Z,101115.88
2023-05-13T20:33:58.630Z,101120.84
2023-05-13T20:36:26.963Z,101121.34
2023-05-13T20:38:54.430Z,101124.22
2023-05-13T20:41:21.876Z,101123.03
2023-05-13T20:43:49.353Z,101119.63
2023-05-13T20:46:17.260Z,101127.09
2023-05-13T20:48:44.873Z,101116.53
2023-05-13T20:51:12.346Z,101122.00
2023-05-13T20:53:40.174Z,101111.81
2023-05-13T20:56:09.991Z,101112.50
2023-05-13T20:58:37.698Z,101111.47
2023-05-13T21:01:05.021Z,101107.22
2023-05-13T21:03:33.278Z,101104.50
2023-05-13T21:06:00.578Z,101109.94
2023-05-13T21:08:28.095Z,101100.25
2023-05-13T21:10:56.468Z,101097.53
2023-05-13T21:13:25.969Z,101105.69
2023-05-13T21:15:53.372Z,101091.25
2023-05-13T21:18:20.867Z,101101.28
2023-05-13T21:20:48.095Z,101090.91
2023-05-13T21:23:15.690Z,101102.47
2023-05-13T21:25:43.082Z,101104.31
2023-05-13T21:28:10.583Z,101096.84
2023-05-13T21:30:37.806Z,101096.50
2023-05-13T21:33:05.427Z,101100.75
2023-05-13T21:35:32.655Z,101096.50
2023-05-13T21:38:08.588Z,101101.94
2023-05-13T21:40:39.081Z,101098.19
2023-05-13T21:43:06.633Z,101101.06
2023-05-13T21:45:33.844Z,101094.44
2023-05-13T21:48:01.495Z,101097.78
2023-05-13T21:50:28.802Z,101095.03
2023-05-13T21:52:56.504Z,101086.53
2023-05-13T21:55:24.241Z,101087.22
2023-05-13T21:57:51.696Z,101101.63
2023-05-13T22:00:19.447Z,101099.72
2023-05-13T22:02:47.689Z,101107.09
2023-05-13T22:05:15.205Z,101099.25
2023-05-13T22:07:42.885Z,101099.69
2023-05-13T22:10:10.574Z,101085.13
2023-05-13T22:12:38.171Z,101081.97
2023-05-13T22:15:06.443Z,101082.13
2023-05-13T22:17:34.181Z,101088.16
2023-05-13T22:20:01.664Z,101089.59
2023-05-13T22:22:29.497Z,101075.22
2023-05-13T22:24:56.832Z,101087.44
2023-05-13T22:27:24.260Z,101080.63
2023-05-13T22:29:51.540Z,101082.13
2023-05-13T22:32:19.020Z,101073.72
2023-05-13T22:34:46.188Z,101078.03
2023-05-13T22:37:13.699Z,101085.66
2023-05-13T22:39:41.028Z,101073.38
2023-05-13T22:42:08.556Z,101082.69
2023-05-13T22:44:35.745Z,101076.06
2023-05-13T22:47:04.200Z,101080.66
2023-05-13T22:49:31.506Z,101079.44
2023-05-13T22:51:58.965Z,101071.03
2023-05-13T22:54:26.238Z,101074.13
2023-05-13T22:56:53.898Z,101075.31
2023-05-13T22:59:21.108Z,101079.09
2023-05-13T23:01:48.777Z,101078.25
2023-05-13T23:04:16.058Z,101068.03
2023-05-13T23:06:43.558Z,101065.31
2023-05-13T23:09:11.143Z,101072.59
2023-05-13T23:11:38.635Z,101071.13
2023-05-13T23:14:05.902Z,101076.38
2023-05-13T23:16:33.425Z,101063.00
2023-05-13T23:19:01.098Z,101073.69
2023-05-13T23:21:28.792Z,101069.03
2023-05-13T23:23:56.102Z,101072.13
2023-05-13T23:26:24.909Z,101063.69
2023-05-13T23:28:52.106Z,101071.66
2023-05-13T23:31:19.634Z,101066.94
2023-05-13T23:33:46.922Z,101063.25
2023-05-13T23:36:16.127Z,101062.06
2023-05-13T23:38:43.298Z,101056.91
2023-05-13T23:41:10.789Z,101073.53
2023-05-13T23:43:37.958Z,101077.78
2023-05-13T23:46:05.640Z,101053.34
2023-05-13T23:48:32.875Z,101048.09
2023-05-13T23:51:00.574Z,101055.19
2023-05-13T23:53:27.740Z,101055.56
2023-05-13T23:55:55.451Z,101057.75
2023-05-13T23:58:22.643Z,101050.25
